createdAt,value
2023-03-30T00:01:17.715Z,291.90
2023-03-30T00:03:48.083Z,77.00
2023-03-30T00:06:23.593Z,43.80
2023-03-30T00:08:57.337Z,46.60
2023-03-30T00:11:27.151Z,22.20
2023-03-30T00:13:55.698Z,17.50
2023-03-30T00:16:24.103Z,17.50
2023-03-30T00:18:52.544Z,18.30
2023-03-30T00:21:21.431Z,16.60
2023-03-30T00:23:50.495Z,30.90
2023-03-30T00:26:19.209Z,18.00
2023-03-30T00:28:47.384Z,16.40
2023-03-30T00:31:15.781Z,15.80
2023-03-30T00:33:47.048Z,16.10
2023-03-30T00:36:17.266Z,14.40
2023-03-30T00:38:46.445Z,17.30
2023-03-30T00:41:16.147Z,29.50
2023-03-30T00:44:06.029Z,104.50
2023-03-30T00:46:35.083Z,38.60
2023-03-30T00:49:09.481Z,78.70
2023-03-30T00:51:42.759Z,24.90
2023-03-30T00:54:17.052Z,33.40
2023-03-30T00:56:46.318Z,23.10
2023-03-30T00:59:14.930Z,13.80
2023-03-30T01:01:50.122Z,24.30
2023-03-30T01:04:19.098Z,52.10
2023-03-30T01:06:49.068Z,61.00
2023-03-30T01:09:18.487Z,117.90
2023-03-30T01:11:47.152Z,49.60
2023-03-30T01:14:16.977Z,17.90
2023-03-30T01:17:01.785Z,19.00
2023-03-30T01:19:45.592Z,273.10
2023-03-30T01:22:37.112Z,465.00
2023-03-30T01:25:50.755Z,91.40
2023-03-30T01:28:36.128Z,20.20
2023-03-30T01:31:12.584Z,21.10
2023-03-30T01:34:08.830Z,68.50
2023-03-30T01:36:51.547Z,209.90
2023-03-30T01:39:27.332Z,148.60
2023-03-30T01:42:04.789Z,53.10
2023-03-30T01:44:41.777Z,126.60
2023-03-30T01:47:18.344Z,34.10
2023-03-30T01:49:59.725Z,17.40
2023-03-30T01:52:53.956Z,35.90
2023-03-30T01:55:47.380Z,25.20
2023-03-30T01:58:37.982Z,22.10
2023-03-30T02:01:10.153Z,20.10
2023-03-30T02:03:43.324Z,19.20
2023-03-30T02:06:20.659Z,17.80
2023-03-30T02:08:50.768Z,18.10
2023-03-30T02:11:19.227Z,23.00
2023-03-30T02:13:47.916Z,27.40
2023-03-30T02:16:22.787Z,17.00
2023-03-30T02:18:51.738Z,17.70
2023-03-30T02:21:20.013Z,21.90
2023-03-30T02:23:49.009Z,15.60
2023-03-30T02:26:17.492Z,14.70
2023-03-30T02:28:47.302Z,15.30
2023-03-30T02:31:17.076Z,15.10
2023-03-30T02:33:57.064Z,14.70
2023-03-30T02:36:42.001Z,15.70
2023-03-30T02:39:28.955Z,15.90
2023-03-30T02:41:57.327Z,17.20
2023-03-30T02:44:48.235Z,18.10
2023-03-30T02:47:37.145Z,21.20
2023-03-30T02:50:31.489Z,19.20
2023-03-30T02:53:23.490Z,17.40
2023-03-30T02:56:04.274Z,15.60
2023-03-30T02:58:48.022Z,17.00
2023-03-30T03:01:28.638Z,26.10
2023-03-30T03:04:04.419Z,21.20
2023-03-30T03:06:40.514Z,18.90
2023-03-30T03:09:09.458Z,19.50
2023-03-30T03:11:37.911Z,16.70
2023-03-30T03:14:08.102Z,22.40
2023-03-30T03:16:36.411Z,31.70
2023-03-30T03:19:13.673Z,19.00
2023-03-30T03:21:42.350Z,15.40
2023-03-30T03:24:13.521Z,14.50
2023-03-30T03:27:02.714Z,97.90
2023-03-30T03:29:35.213Z,71.20
2023-03-30T03:32:04.033Z,24.40
2023-03-30T03:34:39.714Z,17.90
2023-03-30T03:37:08.564Z,18.00
2023-03-30T03:39:37.765Z,16.40
2023-03-30T03:42:11.683Z,16.80
2023-03-30T03:44:47.938Z,18.00
2023-03-30T03:47:17.029Z,23.20
2023-03-30T03:49:45.820Z,27.50
2023-03-30T03:52:14.000Z,52.50
2023-03-30T03:54:42.578Z,145.00
2023-03-30T03:57:11.498Z,58.70
2023-03-30T03:59:39.956Z,109.60
2023-03-30T04:02:08.273Z,77.00
2023-03-30T04:04:36.575Z,132.20
2023-03-30T04:07:05.809Z,47.00
2023-03-30T04:09:34.197Z,39.30
2023-03-30T04:12:02.771Z,38.30
2023-03-30T04:14:39.134Z,42.40
2023-03-30T04:17:15.068Z,37.60
2023-03-30T04:20:12.965Z,41.00
2023-03-30T04:23:02.147Z,58.20
2023-03-30T04:25:52.097Z,29.80
2023-03-30T04:29:00.433Z,34.90
2023-03-30T04:31:48.660Z,35.80
2023-03-30T04:34:31.289Z,46.30
2023-03-30T04:37:07.675Z,28.30
2023-03-30T04:40:13.361Z,94.10
2023-03-30T04:43:04.545Z,96.00
2023-03-30T04:45:53.451Z,46.80
2023-03-30T04:48:40.095Z,48.70
2023-03-30T04:51:35.095Z,35.40
2023-03-30T04:54:33.251Z,23.50
2023-03-30T04:57:21.207Z,28.10
2023-03-30T05:00:13.806Z,41.20
2023-03-30T05:02:42.234Z,52.00
2023-03-30T05:05:43.494Z,130.60
2023-03-30T05:08:19.754Z,31.10
2023-03-30T05:11:08.511Z,14.20
2023-03-30T05:13:53.029Z,12.20
2023-03-30T05:16:34.392Z,15.30
2023-03-30T05:19:26.182Z,18.70
2023-03-30T05:22:21.387Z,13.60
2023-03-30T05:25:13.126Z,27.90
2023-03-30T05:28:01.463Z,17.90
2023-03-30T05:30:44.690Z,13.30
2023-03-30T05:33:48.815Z,17.90
2023-03-30T05:36:20.606Z,11.90
2023-03-30T05:39:11.677Z,10.30
2023-03-30T05:41:52.034Z,10.60
2023-03-30T05:44:27.889Z,34.80
2023-03-30T05:47:14.708Z,19.50
2023-03-30T05:49:58.132Z,16.50
2023-03-30T05:53:02.457Z,12.80
2023-03-30T05:55:49.787Z,20.30
2023-03-30T05:58:34.232Z,10.90
2023-03-30T06:01:09.678Z,12.20
2023-03-30T06:03:40.373Z,10.70
2023-03-30T06:06:10.127Z,8.80
2023-03-30T06:08:42.042Z,8.90
2023-03-30T06:11:13.839Z,9.00
2023-03-30T06:13:46.833Z,10.00
2023-03-30T06:16:15.868Z,9.50
2023-03-30T06:18:45.329Z,8.70
2023-03-30T06:21:15.978Z,21.90
2023-03-30T06:24:09.126Z,48.70
2023-03-30T06:26:38.931Z,154.90
2023-03-30T06:29:07.834Z,119.60
2023-03-30T06:31:36.749Z,82.50
2023-03-30T06:34:25.282Z,138.20
2023-03-30T06:36:54.069Z,205.00
2023-03-30T06:39:25.589Z,183.10
2023-03-30T06:41:54.197Z,96.20
2023-03-30T06:44:42.855Z,71.10
2023-03-30T06:47:15.321Z,80.30
2023-03-30T06:49:44.018Z,119.90
2023-03-30T06:52:46.388Z,70.60
2023-03-30T06:55:15.584Z,52.40
2023-03-30T06:57:43.968Z,52.70
2023-03-30T07:00:13.981Z,24.40
2023-03-30T07:02:44.950Z,22.40
2023-03-30T07:05:33.678Z,14.20
2023-03-30T07:08:25.097Z,6.60
2023-03-30T07:10:54.602Z,8.30
2023-03-30T07:13:24.414Z,4.00
2023-03-30T07:15:53.203Z,11.70
2023-03-30T07:18:21.583Z,7.20
2023-03-30T07:20:51.571Z,4.50
2023-03-30T07:23:22.238Z,6.10
2023-03-30T07:25:53.286Z,6.50
2023-03-30T07:28:26.036Z,4.30
2023-03-30T07:30:54.530Z,6.60
2023-03-30T07:33:23.762Z,4.70
2023-03-30T07:35:53.233Z,5.80
2023-03-30T07:38:25.000Z,8.90
2023-03-30T07:40:56.059Z,7.20
2023-03-30T07:43:27.322Z,4.10
2023-03-30T07:45:56.878Z,4.60
2023-03-30T07:48:31.022Z,6.80
2023-03-30T07:51:04.343Z,17.80
2023-03-30T07:53:34.421Z,6.90
2023-03-30T07:56:04.544Z,5.30
2023-03-30T07:58:40.507Z,6.40
2023-03-30T08:01:08.986Z,6.00
2023-03-30T08:03:57.486Z,8.70
2023-03-30T08:06:27.562Z,6.40
2023-03-30T08:08:58.702Z,13.20
2023-03-30T08:11:27.590Z,33.90
2023-03-30T08:13:55.962Z,4.90
2023-03-30T08:16:24.414Z,3.60
2023-03-30T08:18:55.016Z,3.50
2023-03-30T08:21:26.267Z,4.10
2023-03-30T08:23:58.084Z,5.20
2023-03-30T08:26:28.467Z,4.20
2023-03-30T08:28:57.555Z,5.20
2023-03-30T08:31:26.238Z,4.20
2023-03-30T08:33:54.772Z,3.10
2023-03-30T08:36:23.361Z,2.60
2023-03-30T08:38:54.259Z,3.20
2023-03-30T08:41:24.988Z,2.70
2023-03-30T08:43:54.742Z,7.20
2023-03-30T08:46:23.057Z,5.50
2023-03-30T08:48:54.066Z,4.20
2023-03-30T08:51:29.309Z,3.50
2023-03-30T08:54:05.673Z,4.90
2023-03-30T08:56:43.286Z,4.40
2023-03-30T08:59:37.649Z,3.90
2023-03-30T09:02:27.766Z,3.10
2023-03-30T09:05:02.198Z,4.30
2023-03-30T09:07:37.293Z,8.10
2023-03-30T09:10:12.589Z,5.40
2023-03-30T09:12:46.661Z,6.00
2023-03-30T09:15:22.918Z,5.30
2023-03-30T09:18:20.079Z,4.30
2023-03-30T09:20:52.457Z,3.90
2023-03-30T09:23:21.750Z,5.10
2023-03-30T09:26:12.074Z,3.80
2023-03-30T09:29:16.458Z,4.10
2023-03-30T09:32:21.693Z,3.60
2023-03-30T09:35:01.141Z,3.90
2023-03-30T09:37:30.676Z,3.60
2023-03-30T09:39:59.551Z,5.40
2023-03-30T09:43:16.377Z,2.90
2023-03-30T09:45:45.804Z,4.00
2023-03-30T09:48:16.492Z,6.40
2023-03-30T09:50:46.903Z,3.30
2023-03-30T09:53:26.799Z,3.70
2023-03-30T09:56:00.504Z,7.80
2023-03-30T09:58:34.276Z,3.10
2023-03-30T10:01:24.403Z,4.20
2023-03-30T10:04:11.129Z,3.40
2023-03-30T10:06:47.494Z,4.60
2023-03-30T10:09:21.495Z,3.80
2023-03-30T10:11:55.376Z,3.40
2023-03-30T10:14:37.364Z,3.80
2023-03-30T10:17:06.741Z,2.90
2023-03-30T10:19:38.446Z,3.20
2023-03-30T10:22:17.909Z,3.00
2023-03-30T10:24:55.575Z,3.30
2023-03-30T10:27:34.519Z,3.20
2023-03-30T10:30:11.267Z,3.70
2023-03-30T10:32:46.830Z,3.00
2023-03-30T10:35:22.350Z,3.40
2023-03-30T10:37:54.633Z,3.00
2023-03-30T10:40:36.811Z,3.90
2023-03-30T10:43:08.769Z,2.70
2023-03-30T10:45:44.758Z,2.90
2023-03-30T10:48:52.153Z,2.50
2023-03-30T10:51:31.339Z,2.80
2023-03-30T10:54:27.707Z,3.20
2023-03-30T10:57:03.415Z,2.40
2023-03-30T10:59:53.067Z,2.60
2023-03-30T11:02:46.666Z,3.40
2023-03-30T11:05:32.011Z,4.00
2023-03-30T11:08:04.455Z,3.40
2023-03-30T11:10:48.197Z,3.20
2023-03-30T11:13:35.388Z,2.80
2023-03-30T11:16:27.069Z,3.10
2023-03-30T11:19:12.763Z,3.70
2023-03-30T11:21:50.527Z,2.70
2023-03-30T11:24:21.779Z,3.20
2023-03-30T11:26:56.395Z,3.00
2023-03-30T11:29:53.604Z,3.10
2023-03-30T11:32:42.037Z,2.90
2023-03-30T11:35:30.266Z,5.40
2023-03-30T11:40:43.982Z,3.80
2023-03-30T11:43:15.208Z,2.70
2023-03-30T11:46:00.723Z,3.10
2023-03-30T11:48:38.366Z,3.40
2023-03-30T11:51:24.731Z,39.80
2023-03-30T11:54:21.308Z,3.30
2023-03-30T11:56:58.568Z,3.60
2023-03-30T11:59:54.588Z,2.50
2023-03-30T12:02:36.747Z,3.10
2023-03-30T12:05:38.033Z,3.10
2023-03-30T12:08:18.503Z,3.30
2023-03-30T12:11:02.617Z,4.90
2023-03-30T12:13:44.575Z,9.10
2023-03-30T12:16:28.400Z,6.80
2023-03-30T12:19:15.704Z,9.30
2023-03-30T12:21:53.302Z,44.50
2023-03-30T12:24:43.799Z,8.80
2023-03-30T12:27:12.172Z,24.10
2023-03-30T12:30:02.429Z,7.20
2023-03-30T12:32:35.987Z,5.50
2023-03-30T12:35:43.093Z,3.90
2023-03-30T12:38:22.122Z,4.10
2023-03-30T12:41:14.764Z,3.10
2023-03-30T12:43:43.224Z,3.00
2023-03-30T12:46:26.633Z,2.80
2023-03-30T12:48:55.038Z,3.60
2023-03-30T12:51:58.842Z,3.10
2023-03-30T12:54:30.090Z,2.40
2023-03-30T12:56:58.284Z,3.20
2023-03-30T12:59:36.399Z,2.30
2023-03-30T13:02:33.926Z,2.90
2023-03-30T13:05:03.219Z,2.70
2023-03-30T13:07:36.382Z,2.30
2023-03-30T13:10:30.211Z,2.20
2023-03-30T13:13:00.275Z,3.10
2023-03-30T13:15:47.225Z,9.70
2023-03-30T13:18:40.966Z,41.80
2023-03-30T13:21:24.802Z,29.40
2023-03-30T13:24:46.163Z,23.40
2023-03-30T13:27:14.453Z,10.30
2023-03-30T13:29:52.763Z,4.40
2023-03-30T13:32:39.354Z,5.10
2023-03-30T13:35:18.499Z,4.80
2023-03-30T13:38:21.174Z,4.10
2023-03-30T13:41:29.386Z,6.30
2023-03-30T13:44:03.403Z,3.50
2023-03-30T13:46:47.375Z,3.10
2023-03-30T13:49:50.902Z,4.70
2023-03-30T13:52:28.844Z,3.80
2023-03-30T13:54:58.120Z,62.10
2023-03-30T13:57:35.673Z,19.50
2023-03-30T14:00:28.696Z,7.50
2023-03-30T14:02:57.091Z,144.40
2023-03-30T14:05:28.032Z,7.30
2023-03-30T14:07:59.671Z,4.40
2023-03-30T14:10:29.236Z,2.80
2023-03-30T14:12:58.090Z,2.90
2023-03-30T14:15:37.899Z,2.90
2023-03-30T14:18:13.920Z,3.10
2023-03-30T14:20:50.139Z,2.80
2023-03-30T14:23:23.712Z,4.90
2023-03-30T14:26:01.297Z,3.10
2023-03-30T14:28:34.323Z,5.20
2023-03-30T14:31:11.545Z,2.10
2023-03-30T14:33:41.322Z,5.90
2023-03-30T14:36:12.759Z,14.80
2023-03-30T14:38:52.824Z,4.10
2023-03-30T14:41:27.749Z,5.80
2023-03-30T14:43:57.278Z,15.50
2023-03-30T14:46:32.913Z,6.40
2023-03-30T14:49:01.708Z,10.30
2023-03-30T14:51:40.643Z,5.20
2023-03-30T14:54:15.779Z,8.80
2023-03-30T14:56:58.984Z,4.20
2023-03-30T14:59:29.011Z,3.40
2023-03-30T15:01:58.353Z,4.30
2023-03-30T15:04:34.500Z,5.10
2023-03-30T15:07:05.864Z,4.90
2023-03-30T15:09:39.333Z,7.70
2023-03-30T15:12:08.629Z,9.80
2023-03-30T15:14:40.481Z,12.50
2023-03-30T15:17:18.489Z,5.90
2023-03-30T15:19:50.040Z,3.60
2023-03-30T15:22:27.179Z,4.00
2023-03-30T15:24:59.160Z,4.70
2023-03-30T15:27:28.152Z,4.80
2023-03-30T15:29:59.201Z,4.50
2023-03-30T15:32:40.143Z,4.40
2023-03-30T15:35:14.376Z,6.40
2023-03-30T15:37:57.025Z,8.10
2023-03-30T15:40:30.636Z,38.10
2023-03-30T15:43:16.717Z,3.40
2023-03-30T15:46:07.865Z,17.10
2023-03-30T15:48:51.316Z,18.10
2023-03-30T15:51:37.978Z,41.30
2023-03-30T15:54:21.612Z,22.60
2023-03-30T15:57:11.361Z,5.40
2023-03-30T15:59:52.579Z,22.80
2023-03-30T16:02:22.273Z,32.10
2023-03-30T16:04:51.859Z,81.00
2023-03-30T16:07:22.723Z,11.90
2023-03-30T16:09:51.728Z,9.00
2023-03-30T16:12:28.550Z,11.70
2023-03-30T16:14:58.773Z,16.40
2023-03-30T16:17:27.350Z,160.50
2023-03-30T16:19:55.904Z,82.00
2023-03-30T16:22:24.211Z,99.90
2023-03-30T16:24:53.464Z,91.30
2023-03-30T16:27:22.460Z,75.40
2023-03-30T16:29:50.708Z,82.20
2023-03-30T16:32:19.374Z,114.00
2023-03-30T16:34:47.601Z,86.80
2023-03-30T16:37:15.976Z,269.50
2023-03-30T16:39:46.910Z,197.80
2023-03-30T16:42:15.821Z,90.60
2023-03-30T16:44:44.244Z,40.10
2023-03-30T16:47:12.566Z,28.30
2023-03-30T16:49:40.842Z,108.20
2023-03-30T16:52:10.040Z,47.50
2023-03-30T16:54:38.524Z,40.30
2023-03-30T16:57:09.798Z,17.60
2023-03-30T16:59:38.558Z,51.80
2023-03-30T17:02:13.025Z,34.90
2023-03-30T17:04:45.677Z,20.20
2023-03-30T17:07:13.938Z,13.70
2023-03-30T17:09:42.212Z,17.00
2023-03-30T17:12:10.694Z,8.10
2023-03-30T17:14:42.560Z,14.70
2023-03-30T17:17:12.162Z,10.50
2023-03-30T17:19:41.000Z,15.20
2023-03-30T17:22:09.111Z,68.50
2023-03-30T17:24:37.198Z,14.80
2023-03-30T17:27:06.499Z,15.50
2023-03-30T17:29:35.043Z,12.60
2023-03-30T17:32:06.666Z,20.70
2023-03-30T17:34:34.822Z,20.80
2023-03-30T17:37:03.295Z,21.50
2023-03-30T17:39:31.794Z,23.30
2023-03-30T17:42:01.075Z,25.10
2023-03-30T17:44:29.657Z,33.30
2023-03-30T17:46:58.239Z,24.00
2023-03-30T17:49:26.616Z,21.80
2023-03-30T17:51:54.787Z,20.70
2023-03-30T17:54:24.097Z,18.10
2023-03-30T17:56:52.776Z,21.90
2023-03-30T17:59:21.269Z,26.40
2023-03-30T18:01:49.527Z,28.10
2023-03-30T18:04:17.714Z,58.10
2023-03-30T18:06:48.908Z,76.70
2023-03-30T18:09:17.363Z,48.70
2023-03-30T18:11:45.825Z,48.70
2023-03-30T18:14:14.217Z,24.10
2023-03-30T18:16:44.799Z,21.50
2023-03-30T18:19:14.148Z,20.10
2023-03-30T18:21:44.774Z,23.40
2023-03-30T18:24:12.941Z,19.80
2023-03-30T18:26:43.176Z,16.40
2023-03-30T18:29:22.298Z,16.80
2023-03-30T18:31:51.208Z,14.80
2023-03-30T18:34:19.775Z,16.40
2023-03-30T18:36:48.146Z,14.30
2023-03-30T18:39:20.141Z,11.20
2023-03-30T18:41:52.260Z,13.90
2023-03-30T18:44:20.863Z,11.40
2023-03-30T18:46:51.918Z,11.90
2023-03-30T18:49:23.978Z,10.90
2023-03-30T18:51:52.749Z,9.70
2023-03-30T18:54:21.138Z,9.60
2023-03-30T18:56:51.612Z,10.00
2023-03-30T18:59:23.116Z,12.60
2023-03-30T19:01:51.782Z,22.90
2023-03-30T19:04:19.972Z,19.80
2023-03-30T19:06:48.150Z,24.00
2023-03-30T19:09:16.732Z,28.80
2023-03-30T19:11:45.011Z,23.90
2023-03-30T19:14:13.184Z,20.00
2023-03-30T19:16:42.164Z,18.70
2023-03-30T19:19:14.911Z,17.20
2023-03-30T19:21:43.749Z,15.40
2023-03-30T19:24:14.072Z,11.70
2023-03-30T19:26:42.352Z,9.50
2023-03-30T19:29:11.183Z,11.40
2023-03-30T19:31:39.454Z,9.60
2023-03-30T19:34:07.902Z,10.10
2023-03-30T19:36:36.603Z,10.80
2023-03-30T19:39:05.064Z,12.10
2023-03-30T19:41:33.479Z,12.00
2023-03-30T19:44:01.930Z,9.40
2023-03-30T19:46:30.038Z,9.60
2023-03-30T19:48:58.488Z,10.20
2023-03-30T19:51:26.863Z,11.30
2023-03-30T19:53:57.247Z,13.70
2023-03-30T19:56:26.810Z,18.60
2023-03-30T19:58:55.276Z,33.20
2023-03-30T20:01:23.714Z,35.30
2023-03-30T20:03:52.383Z,31.30
2023-03-30T20:06:20.623Z,31.00
2023-03-30T20:08:49.025Z,32.60
2023-03-30T20:11:17.375Z,40.30
2023-03-30T20:13:46.175Z,44.70
2023-03-30T20:16:22.830Z,32.60
2023-03-30T20:18:55.425Z,29.80
2023-03-30T20:21:26.379Z,32.20
2023-03-30T20:23:58.730Z,28.70
2023-03-30T20:26:29.378Z,23.50
2023-03-30T20:28:57.433Z,22.70
2023-03-30T20:31:26.161Z,21.50
2023-03-30T20:33:54.805Z,21.30
2023-03-30T20:36:23.598Z,20.20
2023-03-30T20:38:52.176Z,17.50
2023-03-30T20:41:21.901Z,16.50
2023-03-30T20:43:56.974Z,15.80
2023-03-30T20:46:35.041Z,14.20
2023-03-30T20:49:04.029Z,13.50
2023-03-30T20:51:32.814Z,11.80
2023-03-30T20:54:01.411Z,13.10
2023-03-30T20:56:29.876Z,37.00
2023-03-30T20:58:58.474Z,23.90
2023-03-30T21:01:29.478Z,14.70
2023-03-30T21:03:59.662Z,14.40
2023-03-30T21:06:30.484Z,14.50
2023-03-30T21:09:01.852Z,12.70
2023-03-30T21:11:33.624Z,13.00
2023-03-30T21:14:02.239Z,13.50
2023-03-30T21:16:31.078Z,14.90
2023-03-30T21:18:59.539Z,14.50
2023-03-30T21:21:28.019Z,22.50
2023-03-30T21:23:57.547Z,24.70
2023-03-30T21:26:26.641Z,23.80
2023-03-30T21:28:55.883Z,19.40
2023-03-30T21:31:24.664Z,17.30
2023-03-30T21:33:53.586Z,20.10
2023-03-30T21:36:22.039Z,14.20
2023-03-30T21:38:50.973Z,17.00
2023-03-30T21:41:21.305Z,18.10
2023-03-30T21:43:49.741Z,17.10
2023-03-30T21:46:20.696Z,16.10
2023-03-30T21:48:53.693Z,16.20
2023-03-30T21:51:28.854Z,15.50
2023-03-30T21:53:58.237Z,15.20
2023-03-30T21:56:29.583Z,13.30
2023-03-30T21:58:59.187Z,11.40
2023-03-30T22:01:28.189Z,11.70
2023-03-30T22:03:56.945Z,13.90
2023-03-30T22:06:25.476Z,12.20
2023-03-30T22:08:53.950Z,10.10
2023-03-30T22:11:25.476Z,8.90
2023-03-30T22:13:55.492Z,8.40
2023-03-30T22:16:28.428Z,10.10
2023-03-30T22:18:57.284Z,10.90
2023-03-30T22:21:34.626Z,6.60
2023-03-30T22:26:33.990Z,7.10
2023-03-30T22:29:02.374Z,6.30
2023-03-30T22:31:30.976Z,6.50
2023-03-30T22:33:59.651Z,7.30
2023-03-30T22:36:31.015Z,6.90
2023-03-30T22:39:01.103Z,7.00
2023-03-30T22:41:31.136Z,9.20
2023-03-30T22:43:59.509Z,7.80
2023-03-30T22:46:28.197Z,8.60
2023-03-30T22:48:56.761Z,7.70
2023-03-30T22:51:28.549Z,7.80
2023-03-30T22:53:58.785Z,8.10
2023-03-30T22:56:28.929Z,8.00
2023-03-30T22:58:59.095Z,5.80
2023-03-30T23:01:29.380Z,7.90
2023-03-30T23:03:59.661Z,8.50
2023-03-30T23:06:28.133Z,7.90
2023-03-30T23:08:56.403Z,7.80
2023-03-30T23:11:26.621Z,7.00
2023-03-30T23:13:55.816Z,7.80
2023-03-30T23:16:24.330Z,7.30
2023-03-30T23:18:52.494Z,8.90
2023-03-30T23:21:22.502Z,10.40
2023-03-30T23:23:51.176Z,9.80
2023-03-30T23:26:19.749Z,9.60
2023-03-30T23:28:48.046Z,7.80
2023-03-30T23:31:19.064Z,8.00
2023-03-30T23:33:47.350Z,7.40
2023-03-30T23:36:19.432Z,8.50
2023-03-30T23:38:48.391Z,8.90
2023-03-30T23:41:18.553Z,10.00
2023-03-30T23:43:47.741Z,11.10
2023-03-30T23:46:16.343Z,8.40
2023-03-30T23:48:44.600Z,40.10
2023-03-30T23:51:12.992Z,21.10
2023-03-30T23:53:41.876Z,78.70
2023-03-30T23:56:17.378Z,95.60
2023-03-30T23:58:46.521Z,54.00
